sensor_id;sensor_type;location;lat;lon;timestamp;temperature;humidity
32107;DHT22;18622;51.998;10.440;2022-09-02T02:20:00;10.70;91.20
32107;DHT22;18622;51.998;10.440;2022-09-02T02:22:28;10.70;91.20
32107;DHT22;18622;51.998;10.440;2022-09-02T02:24:57;10.70;91.40
32107;DHT22;18622;51.998;10.440;2022-09-02T02:27:24;10.70;91.40
32107;DHT22;18622;51.998;10.440;2022-09-02T02:29:52;10.60;91.40
32107;DHT22;18622;51.998;10.440;2022-09-02T02:32:20;10.70;91.60
32107;DHT22;18622;51.998;10.440;2022-09-02T02:34:48;10.70;91.50
32107;DHT22;18622;51.998;10.440;2022-09-02T02:37:16;10.70;91.50
32107;DHT22;18622;51.998;10.440;2022-09-02T02:39:44;10.70;91.60
32107;DHT22;18622;51.998;10.440;2022-09-02T02:42:12;10.80;91.60
32107;DHT22;18622;51.998;10.440;2022-09-02T02:44:40;10.80;91.60
32107;DHT22;18622;51.998;10.440;2022-09-02T02:47:08;10.80;91.70
32107;DHT22;18622;51.998;10.440;2022-09-02T02:49:38;10.80;91.80
32107;DHT22;18622;51.998;10.440;2022-09-02T02:52:06;10.80;91.80
32107;DHT22;18622;51.998;10.440;2022-09-02T02:57:04;10.80;91.80
32107;DHT22;18622;51.998;10.440;2022-09-02T02:59:32;10.80;91.90
32107;DHT22;18622;51.998;10.440;2022-09-02T03:35:28;10.80;92.40
32107;DHT22;18622;51.998;10.440;2022-09-02T03:37:57;10.80;92.30
32107;DHT22;18622;51.998;10.440;2022-09-02T03:40:26;10.80;92.40
32107;DHT22;18622;51.998;10.440;2022-09-02T03:42:55;10.80;92.40
32107;DHT22;18622;51.998;10.440;2022-09-02T03:45:23;10.80;92.50
32107;DHT22;18622;51.998;10.440;2022-09-02T03:47:51;10.80;92.50
32107;DHT22;18622;51.998;10.440;2022-09-02T03:50:25;10.70;92.50
32107;DHT22;18622;51.998;10.440;2022-09-02T03:52:52;10.70;92.50
32107;DHT22;18622;51.998;10.440;2022-09-02T03:55:21;10.70;92.50
32107;DHT22;18622;51.998;10.440;2022-09-02T03:57:49;10.70;92.70
32107;DHT22;18622;51.998;10.440;2022-09-02T04:00:19;10.70;92.80
32107;DHT22;18622;51.998;10.440;2022-09-02T04:02:50;10.70;92.70
32107;DHT22;18622;51.998;10.440;2022-09-02T04:05:19;10.60;92.70
32107;DHT22;18622;51.998;10.440;2022-09-02T04:07:48;10.60;92.70
32107;DHT22;18622;51.998;10.440;2022-09-02T04:10:17;10.60;92.80
32107;DHT22;18622;51.998;10.440;2022-09-02T04:12:45;10.60;93.00
32107;DHT22;18622;51.998;10.440;2022-09-02T04:15:12;10.50;92.90
32107;DHT22;18622;51.998;10.440;2022-09-02T04:17:41;10.60;93.10
32107;DHT22;18622;51.998;10.440;2022-09-02T04:20:10;10.50;93.10
32107;DHT22;18622;51.998;10.440;2022-09-02T04:22:41;10.50;93.20
32107;DHT22;18622;51.998;10.440;2022-09-02T04:25:09;10.40;93.10
32107;DHT22;18622;51.998;10.440;2022-09-02T04:27:38;10.40;93.10
32107;DHT22;18622;51.998;10.440;2022-09-02T04:30:07;10.40;93.20
32107;DHT22;18622;51.998;10.440;2022-09-02T04:32:35;10.40;93.30
32107;DHT22;18622;51.998;10.440;2022-09-02T04:35:04;10.40;93.30
32107;DHT22;18622;51.998;10.440;2022-09-02T04:37:31;10.30;93.50
32107;DHT22;18622;51.998;10.440;2022-09-02T04:39:59;10.30;93.60
32107;DHT22;18622;51.998;10.440;2022-09-02T04:42:27;10.30;93.60
32107;DHT22;18622;51.998;10.440;2022-09-02T04:44:55;10.30;93.60
32107;DHT22;18622;51.998;10.440;2022-09-02T04:47:23;10.30;93.70
32107;DHT22;18622;51.998;10.440;2022-09-02T04:49:51;10.30;93.70
32107;DHT22;18622;51.998;10.440;2022-09-02T04:52:19;10.30;93.80
32107;DHT22;18622;51.998;10.440;2022-09-02T04:54:47;10.30;93.80
32107;DHT22;18622;51.998;10.440;2022-09-02T04:57:15;10.30;93.80
32107;DHT22;18622;51.998;10.440;2022-09-02T04:59:43;10.30;93.90
32107;DHT22;18622;51.998;10.440;2022-09-02T05:02:12;10.30;94.00
32107;DHT22;18622;51.998;10.440;2022-09-02T05:04:39;10.30;94.10
32107;DHT22;18622;51.998;10.440;2022-09-02T05:07:07;10.30;94.10
32107;DHT22;18622;51.998;10.440;2022-09-02T05:09:35;10.30;94.00
32107;DHT22;18622;51.998;10.440;2022-09-02T05:12:04;10.30;94.10
32107;DHT22;18622;51.998;10.440;2022-09-02T05:14:31;10.30;94.20
32107;DHT22;18622;51.998;10.440;2022-09-02T09:04:02;23.60;56.90
32107;DHT22;18622;51.998;10.440;2022-09-02T09:06:43;24.00;55.80
32107;DHT22;18622;51.998;10.440;2022-09-02T09:12:11;24.80;54.80
32107;DHT22;18622;51.998;10.440;2022-09-02T09:17:57;25.40;51.50
32107;DHT22;18622;51.998;10.440;2022-09-02T09:20:31;25.80;50.80
32107;DHT22;18622;51.998;10.440;2022-09-02T09:22:56;26.20;50.10
32107;DHT22;18622;51.998;10.440;2022-09-02T09:27:53;27.10;46.10
32107;DHT22;18622;51.998;10.440;2022-09-02T09:30:21;27.50;46.60
32107;DHT22;18622;51.998;10.440;2022-09-02T09:32:54;27.90;45.70
32107;DHT22;18622;51.998;10.440;2022-09-02T09:35:23;28.40;44.80
32107;DHT22;18622;51.998;10.440;2022-09-02T09:37:53;28.60;43.60
32107;DHT22;18622;51.998;10.440;2022-09-02T09:40:29;28.90;41.40
32107;DHT22;18622;51.998;10.440;2022-09-02T09:45:36;29.50;41.10
32107;DHT22;18622;51.998;10.440;2022-09-02T09:48:24;30.00;40.50
32107;DHT22;18622;51.998;10.440;2022-09-02T09:53:33;30.60;38.90
32107;DHT22;18622;51.998;10.440;2022-09-02T09:58:46;31.10;37.50
32107;DHT22;18622;51.998;10.440;2022-09-02T10:04:01;31.30;36.10
32107;DHT22;18622;51.998;10.440;2022-09-02T10:09:03;31.40;35.20
32107;DHT22;18622;51.998;10.440;2022-09-02T10:11:36;31.50;35.10
32107;DHT22;18622;51.998;10.440;2022-09-02T10:14:07;31.60;34.40
32107;DHT22;18622;51.998;10.440;2022-09-02T10:21:56;32.10;34.60
32107;DHT22;18622;51.998;10.440;2022-09-02T10:27:14;32.60;32.60
32107;DHT22;18622;51.998;10.440;2022-09-02T10:30:05;32.70;33.00
32107;DHT22;18622;51.998;10.440;2022-09-02T10:32:31;33.00;33.00
32107;DHT22;18622;51.998;10.440;2022-09-02T10:35:20;33.30;33.20
32107;DHT22;18622;51.998;10.440;2022-09-02T10:38:04;33.60;32.60
32107;DHT22;18622;51.998;10.440;2022-09-02T10:40:43;33.80;31.80
32107;DHT22;18622;51.998;10.440;2022-09-02T10:45:49;33.90;32.20
32107;DHT22;18622;51.998;10.440;2022-09-02T10:53:53;34.60;31.60
32107;DHT22;18622;51.998;10.440;2022-09-02T10:56:23;35.00;31.40
32107;DHT22;18622;51.998;10.440;2022-09-02T10:59:01;35.40;30.60
32107;DHT22;18622;51.998;10.440;2022-09-02T12:36:58;41.90;25.60
32107;DHT22;18622;51.998;10.440;2022-09-02T12:42:18;42.20;25.90
32107;DHT22;18622;51.998;10.440;2022-09-02T12:48:10;42.00;25.40
32107;DHT22;18622;51.998;10.440;2022-09-02T12:50:54;41.20;25.90
32107;DHT22;18622;51.998;10.440;2022-09-02T12:53:40;39.80;26.10
32107;DHT22;18622;51.998;10.440;2022-09-02T12:56:21;38.30;27.00
32107;DHT22;18622;51.998;10.440;2022-09-02T12:58:55;37.40;26.90
32107;DHT22;18622;51.998;10.440;2022-09-02T13:01:40;37.60;27.30
32107;DHT22;18622;51.998;10.440;2022-09-02T13:04:16;38.50;27.10
32107;DHT22;18622;51.998;10.440;2022-09-02T13:26:30;42.10;25.10
32107;DHT22;18622;51.998;10.440;2022-09-02T13:29:04;41.70;25.20
32107;DHT22;18622;51.998;10.440;2022-09-02T13:31:28;40.40;25.70
32107;DHT22;18622;51.998;10.440;2022-09-02T13:34:04;38.70;26.20
32107;DHT22;18622;51.998;10.440;2022-09-02T13:36:38;37.40;26.80
32107;DHT22;18622;51.998;10.440;2022-09-02T13:39:19;37.30;27.30
32107;DHT22;18622;51.998;10.440;2022-09-02T13:41:48;37.60;26.70
32107;DHT22;18622;51.998;10.440;2022-09-02T13:44:26;38.00;26.80
32107;DHT22;18622;51.998;10.440;2022-09-02T13:47:11;38.30;26.00
32107;DHT22;18622;51.998;10.440;2022-09-02T13:49:34;37.60;26.20
32107;DHT22;18622;51.998;10.440;2022-09-02T13:52:02;36.40;27.20
32107;DHT22;18622;51.998;10.440;2022-09-02T13:54:36;35.10;28.00
32107;DHT22;18622;51.998;10.440;2022-09-02T13:57:06;34.10;28.30
32107;DHT22;18622;51.998;10.440;2022-09-02T13:59:48;33.40;29.20
32107;DHT22;18622;51.998;10.440;2022-09-02T14:02:28;33.10;28.80
32107;DHT22;18622;51.998;10.440;2022-09-02T14:04:56;33.00;29.20
32107;DHT22;18622;51.998;10.440;2022-09-02T14:07:30;34.10;29.10
32107;DHT22;18622;51.998;10.440;2022-09-02T14:10:00;34.90;28.20
32107;DHT22;18622;51.998;10.440;2022-09-02T14:12:31;34.90;28.10
32107;DHT22;18622;51.998;10.440;2022-09-02T14:15:00;34.90;28.80
32107;DHT22;18622;51.998;10.440;2022-09-02T14:17:28;35.10;28.20
32107;DHT22;18622;51.998;10.440;2022-09-02T14:20:15;35.60;27.50
32107;DHT22;18622;51.998;10.440;2022-09-02T14:22:36;36.40;27.30
32107;DHT22;18622;51.998;10.440;2022-09-02T14:25:13;37.10;27.00
32107;DHT22;18622;51.998;10.440;2022-09-02T14:27:55;37.40;26.80
32107;DHT22;18622;51.998;10.440;2022-09-02T14:30:29;37.60;27.20
32107;DHT22;18622;51.998;10.440;2022-09-02T14:39:08;39.00;26.40
32107;DHT22;18622;51.998;10.440;2022-09-02T14:41:33;39.40;25.80
32107;DHT22;18622;51.998;10.440;2022-09-02T14:46:49;40.00;25.20
32107;DHT22;18622;51.998;10.440;2022-09-02T14:51:56;39.80;25.10
32107;DHT22;18622;51.998;10.440;2022-09-02T14:54:41;39.50;25.60
32107;DHT22;18622;51.998;10.440;2022-09-02T14:57:24;39.30;25.20
32107;DHT22;18622;51.998;10.440;2022-09-02T14:59:57;39.00;25.10
32107;DHT22;18622;51.998;10.440;2022-09-02T15:02:30;38.80;25.80
32107;DHT22;18622;51.998;10.440;2022-09-02T15:05:01;38.30;26.00
32107;DHT22;18622;51.998;10.440;2022-09-02T15:07:28;37.50;26.70
32107;DHT22;18622;51.998;10.440;2022-09-02T15:09:56;37.00;26.30
32107;DHT22;18622;51.998;10.440;2022-09-02T15:12:34;36.80;26.00
32107;DHT22;18622;51.998;10.440;2022-09-02T15:14:59;36.50;26.60
32107;DHT22;18622;51.998;10.440;2022-09-02T15:17:26;36.50;26.10
32107;DHT22;18622;51.998;10.440;2022-09-02T15:19:56;36.40;26.80
32107;DHT22;18622;51.998;10.440;2022-09-02T15:22:24;36.60;26.40
32107;DHT22;18622;51.998;10.440;2022-09-02T15:24:51;36.90;26.40
32107;DHT22;18622;51.998;10.440;2022-09-02T15:27:20;36.90;26.40
32107;DHT22;18622;51.998;10.440;2022-09-02T15:29:49;36.80;26.60
32107;DHT22;18622;51.998;10.440;2022-09-02T15:32:17;36.80;26.60
32107;DHT22;18622;51.998;10.440;2022-09-02T15:34:45;36.70;26.70
32107;DHT22;18622;51.998;10.440;2022-09-02T15:37:13;36.70;26.70
32107;DHT22;18622;51.998;10.440;2022-09-02T15:39:40;36.60;26.70
32107;DHT22;18622;51.998;10.440;2022-09-02T15:42:08;36.70;26.40
32107;DHT22;18622;51.998;10.440;2022-09-02T15:44:36;36.70;26.70
32107;DHT22;18622;51.998;10.440;2022-09-02T15:47:04;36.60;26.60
32107;DHT22;18622;51.998;10.440;2022-09-02T15:49:32;36.50;26.60
32107;DHT22;18622;51.998;10.440;2022-09-02T15:51:59;36.30;26.70
32107;DHT22;18622;51.998;10.440;2022-09-02T15:54:28;36.20;27.00
32107;DHT22;18622;51.998;10.440;2022-09-02T15:56:58;36.10;27.20
32107;DHT22;18622;51.998;10.440;2022-09-02T15:59:25;36.00;26.90
32107;DHT22;18622;51.998;10.440;2022-09-02T16:01:55;35.90;26.80
32107;DHT22;18622;51.998;10.440;2022-09-02T16:04:23;35.90;26.90
32107;DHT22;18622;51.998;10.440;2022-09-02T16:06:52;35.90;27.00
32107;DHT22;18622;51.998;10.440;2022-09-02T16:09:19;35.80;26.90
32107;DHT22;18622;51.998;10.440;2022-09-02T16:11:49;35.70;26.90
32107;DHT22;18622;51.998;10.440;2022-09-02T16:14:18;35.80;26.80
32107;DHT22;18622;51.998;10.440;2022-09-02T16:16:47;36.00;26.60
32107;DHT22;18622;51.998;10.440;2022-09-02T16:19:20;36.10;26.90
32107;DHT22;18622;51.998;10.440;2022-09-02T16:21:48;36.20;26.50
32107;DHT22;18622;51.998;10.440;2022-09-02T16:24:17;36.30;26.80
32107;DHT22;18622;51.998;10.440;2022-09-02T16:26:47;36.30;26.60
32107;DHT22;18622;51.998;10.440;2022-09-02T16:29:16;36.20;26.80
32107;DHT22;18622;51.998;10.440;2022-09-02T16:31:46;35.60;26.40
32107;DHT22;18622;51.998;10.440;2022-09-02T16:34:15;34.50;26.90
32107;DHT22;18622;51.998;10.440;2022-09-02T16:36:45;32.90;27.90
32107;DHT22;18622;51.998;10.440;2022-09-02T16:39:13;31.60;28.50
32107;DHT22;18622;51.998;10.440;2022-09-02T16:41:43;30.40;29.30
32107;DHT22;18622;51.998;10.440;2022-09-02T16:44:16;29.40;29.70
32107;DHT22;18622;51.998;10.440;2022-09-02T16:46:45;28.60;30.70
32107;DHT22;18622;51.998;10.440;2022-09-02T16:49:15;27.80;30.70
32107;DHT22;18622;51.998;10.440;2022-09-02T16:51:47;27.20;31.20
32107;DHT22;18622;51.998;10.440;2022-09-02T16:54:16;26.60;32.30
32107;DHT22;18622;51.998;10.440;2022-09-02T16:56:44;26.20;32.50
32107;DHT22;18622;51.998;10.440;2022-09-02T16:59:12;25.70;33.20
32107;DHT22;18622;51.998;10.440;2022-09-02T17:01:40;25.30;33.70
32107;DHT22;18622;51.998;10.440;2022-09-02T17:04:08;25.00;34.20
32107;DHT22;18622;51.998;10.440;2022-09-02T17:06:36;24.60;34.60
32107;DHT22;18622;51.998;10.440;2022-09-02T17:09:04;24.30;34.90
32107;DHT22;18622;51.998;10.440;2022-09-02T17:11:36;24.00;35.70
32107;DHT22;18622;51.998;10.440;2022-09-02T17:14:06;23.80;36.30
32107;DHT22;18622;51.998;10.440;2022-09-02T17:16:43;23.50;36.10
32107;DHT22;18622;51.998;10.440;2022-09-02T17:19:09;23.40;36.40
32107;DHT22;18622;51.998;10.440;2022-09-02T17:21:41;23.10;37.40
32107;DHT22;18622;51.998;10.440;2022-09-02T17:24:10;22.90;37.30
32107;DHT22;18622;51.998;10.440;2022-09-02T17:26:40;22.80;37.70
32107;DHT22;18622;51.998;10.440;2022-09-02T17:29:10;22.60;38.30
32107;DHT22;18622;51.998;10.440;2022-09-02T17:31:38;22.40;38.40
32107;DHT22;18622;51.998;10.440;2022-09-02T17:34:07;22.30;38.40
32107;DHT22;18622;51.998;10.440;2022-09-02T17:36:36;22.10;38.60
32107;DHT22;18622;51.998;10.440;2022-09-02T17:39:07;22.00;38.70
32107;DHT22;18622;51.998;10.440;2022-09-02T17:41:35;21.80;39.20
32107;DHT22;18622;51.998;10.440;2022-09-02T17:44:27;21.60;39.90
32107;DHT22;18622;51.998;10.440;2022-09-02T17:46:51;21.50;40.00
32107;DHT22;18622;51.998;10.440;2022-09-02T17:49:21;21.30;40.40
32107;DHT22;18622;51.998;10.440;2022-09-02T17:51:49;21.20;40.80
32107;DHT22;18622;51.998;10.440;2022-09-02T17:54:17;21.00;40.90
32107;DHT22;18622;51.998;10.440;2022-09-02T18:02:46;20.60;42.30
32107;DHT22;18622;51.998;10.440;2022-09-02T18:08:14;20.30;42.70
32107;DHT22;18622;51.998;10.440;2022-09-02T18:10:50;20.20;43.30
32107;DHT22;18622;51.998;10.440;2022-09-02T18:13:22;20.10;43.80
32107;DHT22;18622;51.998;10.440;2022-09-02T18:16:22;19.90;44.60
32107;DHT22;18622;51.998;10.440;2022-09-02T18:21:26;19.80;44.20
32107;DHT22;18622;51.998;10.440;2022-09-02T18:24:09;19.60;44.90
32107;DHT22;18622;51.998;10.440;2022-09-02T18:29:31;19.40;45.20
32107;DHT22;18622;51.998;10.440;2022-09-02T18:37:08;19.10;45.90
32107;DHT22;18622;51.998;10.440;2022-09-02T18:43:05;18.90;46.60
32107;DHT22;18622;51.998;10.440;2022-09-02T18:45:34;18.80;47.30
32107;DHT22;18622;51.998;10.440;2022-09-02T18:48:12;18.70;46.90
32107;DHT22;18622;51.998;10.440;2022-09-02T18:50:46;18.60;46.60
32107;DHT22;18622;51.998;10.440;2022-09-02T18:53:17;18.60;47.40
32107;DHT22;18622;51.998;10.440;2022-09-02T18:55:45;18.50;47.50
32107;DHT22;18622;51.998;10.440;2022-09-02T18:58:46;18.40;47.60
32107;DHT22;18622;51.998;10.440;2022-09-02T19:01:23;18.40;47.80
32107;DHT22;18622;51.998;10.440;2022-09-02T19:03:52;18.30;48.00
32107;DHT22;18622;51.998;10.440;2022-09-02T19:06:22;18.20;48.90
32107;DHT22;18622;51.998;10.440;2022-09-02T19:09:00;18.10;49.10
32107;DHT22;18622;51.998;10.440;2022-09-02T19:11:24;18.10;49.40
32107;DHT22;18622;51.998;10.440;2022-09-02T19:13:54;18.00;49.70
32107;DHT22;18622;51.998;10.440;2022-09-02T19:16:23;17.90;49.80
32107;DHT22;18622;51.998;10.440;2022-09-02T19:18:51;17.80;49.60
32107;DHT22;18622;51.998;10.440;2022-09-02T19:21:27;17.70;50.00
32107;DHT22;18622;51.998;10.440;2022-09-02T19:23:53;17.50;50.50
32107;DHT22;18622;51.998;10.440;2022-09-02T19:26:21;17.40;50.90
32107;DHT22;18622;51.998;10.440;2022-09-02T19:28:50;17.40;51.30
32107;DHT22;18622;51.998;10.440;2022-09-02T19:31:21;17.30;51.40
32107;DHT22;18622;51.998;10.440;2022-09-02T19:33:50;17.30;51.70
32107;DHT22;18622;51.998;10.440;2022-09-02T19:36:24;17.20;52.40
32107;DHT22;18622;51.998;10.440;2022-09-02T19:38:52;17.10;52.20
32107;DHT22;18622;51.998;10.440;2022-09-02T19:41:20;17.10;52.70
32107;DHT22;18622;51.998;10.440;2022-09-02T19:43:50;17.00;52.90
32107;DHT22;18622;51.998;10.440;2022-09-02T19:46:20;16.90;53.60
32107;DHT22;18622;51.998;10.440;2022-09-02T19:48:48;16.80;53.40
32107;DHT22;18622;51.998;10.440;2022-09-02T19:51:16;16.80;53.80
32107;DHT22;18622;51.998;10.440;2022-09-02T19:53:44;16.70;54.20
32107;DHT22;18622;51.998;10.440;2022-09-02T19:56:13;16.60;54.40
32107;DHT22;18622;51.998;10.440;2022-09-02T19:58:41;16.50;54.70
32107;DHT22;18622;51.998;10.440;2022-09-02T20:01:09;16.40;54.90
32107;DHT22;18622;51.998;10.440;2022-09-02T20:03:37;16.30;55.30
32107;DHT22;18622;51.998;10.440;2022-09-02T20:06:05;16.20;55.70
32107;DHT22;18622;51.998;10.440;2022-09-02T20:08:33;16.20;56.20
32107;DHT22;18622;51.998;10.440;2022-09-02T20:11:03;16.10;56.70
32107;DHT22;18622;51.998;10.440;2022-09-02T20:13:31;16.00;56.80
32107;DHT22;18622;51.998;10.440;2022-09-02T20:16:01;15.90;57.10
32107;DHT22;18622;51.998;10.440;2022-09-02T20:18:29;15.90;57.50
32107;DHT22;18622;51.998;10.440;2022-09-02T20:20:58;15.80;57.90
32107;DHT22;18622;51.998;10.440;2022-09-02T20:23:29;15.80;58.10
32107;DHT22;18622;51.998;10.440;2022-09-02T20:26:32;15.80;58.40
32107;DHT22;18622;51.998;10.440;2022-09-02T20:29:07;15.70;58.70
32107;DHT22;18622;51.998;10.440;2022-09-02T20:40:11;15.50;59.70
32107;DHT22;18622;51.998;10.440;2022-09-02T20:45:38;15.40;60.10
32107;DHT22;18622;51.998;10.440;2022-09-02T20:48:37;15.40;60.20
32107;DHT22;18622;51.998;10.440;2022-09-02T20:51:21;15.30;61.00
32107;DHT22;18622;51.998;10.440;2022-09-02T20:54:15;15.20;61.20
32107;DHT22;18622;51.998;10.440;2022-09-02T21:02:11;15.00;61.90
32107;DHT22;18622;51.998;10.440;2022-09-02T21:04:55;15.00;62.30
32107;DHT22;18622;51.998;10.440;2022-09-02T21:07:38;15.00;62.50
32107;DHT22;18622;51.998;10.440;2022-09-02T21:10:24;14.90;62.60
32107;DHT22;18622;51.998;10.440;2022-09-02T21:15:48;14.90;63.30
32107;DHT22;18622;51.998;10.440;2022-09-02T21:23:48;14.70;64.00
32107;DHT22;18622;51.998;10.440;2022-09-02T21:26:26;14.60;64.20
32107;DHT22;18622;51.998;10.440;2022-09-02T21:29:03;14.60;64.60
32107;DHT22;18622;51.998;10.440;2022-09-02T21:31:37;14.60;64.90
32107;DHT22;18622;51.998;10.440;2022-09-02T21:34:06;14.50;65.30
32107;DHT22;18622;51.998;10.440;2022-09-02T21:36:35;14.40;65.40
32107;DHT22;18622;51.998;10.440;2022-09-02T21:39:07;14.40;65.70
32107;DHT22;18622;51.998;10.440;2022-09-02T21:41:41;14.40;66.00
32107;DHT22;18622;51.998;10.440;2022-09-02T21:44:35;14.30;66.50
